Time;durP1;ratioP1;P1;durP2;ratioP2;P2;SDS_P1;SDS_P2;PMS_P1;PMS_P2;Temp;Humidity;BMP_temperature;BMP_pressure;BME280_temperature;BME280_humidity;BME280_pressure;Samples;Min_cycle;Max_cycle;Signal;HPM_P1;HPM_P2
2021/08/28 00:00:07;;;;;;;19.10;9.95;;;;;;;12.90;100.00;101108.91;672928;29;1903;-83
2021/08/28 00:00:27;;;;;;;20.92;10.20;;;;;;;12.89;100.00;101108.06;676788;29;1338;-83
2021/08/28 00:00:51;;;;;;;19.13;9.87;;;;;;;12.88;100.00;101108.94;675942;29;4400;-83
2021/08/28 00:01:11;;;;;;;15.77;10.23;;;;;;;12.88;100.00;101108.06;674851;29;1113;-82
2021/08/28 00:01:31;;;;;;;16.73;10.10;;;;;;;12.87;100.00;101109.81;677464;29;1099;-84
2021/08/28 00:01:52;;;;;;;18.57;10.13;;;;;;;12.87;100.00;101115.06;679725;29;1357;-83
2021/08/28 00:02:12;;;;;;;17.35;10.50;;;;;;;12.86;100.00;101109.81;679643;29;1397;-83
2021/08/28 00:02:33;;;;;;;15.80;10.10;;;;;;;12.86;100.00;101117.69;677262;29;2616;-83
2021/08/28 00:02:53;;;;;;;17.05;10.23;;;;;;;12.84;100.00;101109.84;675372;29;1605;-83
2021/08/28 00:03:13;;;;;;;17.17;10.37;;;;;;;12.86;100.00;101109.81;677473;29;1361;-83
2021/08/28 00:03:34;;;;;;;17.50;10.55;;;;;;;12.84;100.00;101111.59;678076;29;988;-83
2021/08/28 00:03:55;;;;;;;19.27;11.13;;;;;;;12.85;100.00;101113.31;679914;29;4596;-84
2021/08/28 00:04:15;;;;;;;16.13;10.93;;;;;;;12.85;100.00;101105.44;680704;29;1418;-83
2021/08/28 00:04:35;;;;;;;16.40;10.98;;;;;;;12.84;100.00;101107.22;681000;28;1244;-83
2021/08/28 00:04:56;;;;;;;16.73;10.33;;;;;;;12.84;100.00;101109.84;683166;29;1039;-83
2021/08/28 00:05:16;;;;;;;14.50;9.17;;;;;;;12.84;100.00;101104.59;679858;29;1252;-83
2021/08/28 00:05:37;;;;;;;17.33;10.25;;;;;;;12.84;100.00;101109.84;679827;29;3759;-83
2021/08/28 00:05:57;;;;;;;19.27;10.70;;;;;;;12.84;100.00;101104.59;680138;29;1540;-83
2021/08/28 00:06:17;;;;;;;18.67;10.97;;;;;;;12.84;100.00;101107.22;674606;29;1335;-83
2021/08/28 00:06:38;;;;;;;18.47;10.70;;;;;;;12.84;100.00;101099.34;672804;29;1181;-83
2021/08/28 00:06:58;;;;;;;15.48;9.77;;;;;;;12.85;100.00;101100.19;674228;29;4434;-83
2021/08/28 00:07:18;;;;;;;15.73;10.00;;;;;;;12.85;100.00;101106.34;674859;29;1095;-83
2021/08/28 00:07:39;;;;;;;17.47;10.13;;;;;;;12.89;100.00;101101.91;677650;29;1686;-83
2021/08/28 00:07:59;;;;;;;17.15;10.32;;;;;;;12.88;100.00;101103.69;680307;29;1861;-83
2021/08/28 00:08:23;;;;;;;18.37;10.03;;;;;;;12.95;100.00;101091.41;678768;29;1117;-83
2021/08/28 00:08:43;;;;;;;16.27;9.80;;;;;;;12.95;100.00;101096.63;676713;29;2497;-83
2021/08/28 00:09:03;;;;;;;14.73;9.07;;;;;;;12.95;100.00;101096.63;677905;29;1234;-83
2021/08/28 00:09:24;;;;;;;14.67;9.13;;;;;;;12.95;100.00;101101.88;680572;29;1172;-83
2021/08/28 00:09:44;;;;;;;15.85;9.73;;;;;;;12.94;100.00;101102.75;677095;29;4526;-83
2021/08/28 00:10:08;;;;;;;16.63;10.20;;;;;;;12.93;100.00;101101.91;677512;29;1404;-83
2021/08/28 00:10:29;;;;;;;15.73;10.52;;;;;;;12.91;100.00;101101.03;679782;29;2078;-83
2021/08/28 00:10:49;;;;;;;15.30;9.93;;;;;;;12.91;100.00;101100.16;674528;29;1151;-82
2021/08/28 00:11:10;;;;;;;17.02;10.25;;;;;;;12.92;100.00;101104.53;675467;29;985;-83
2021/08/28 00:11:30;;;;;;;16.07;10.00;;;;;;;12.90;100.00;101099.31;672582;29;3811;-83
2021/08/28 00:11:50;;;;;;;15.00;10.63;;;;;;;12.93;100.00;101101.00;672353;29;1285;-82
2021/08/28 00:12:11;;;;;;;15.30;10.30;;;;;;;12.92;100.00;101097.53;671688;29;1205;-83
2021/08/28 00:12:31;;;;;;;15.83;9.77;;;;;;;12.91;100.00;101103.66;672276;29;1437;-83
2021/08/28 00:12:51;;;;;;;14.38;9.13;;;;;;;12.92;100.00;101097.53;674009;29;4401;-83
2021/08/28 00:13:13;;;;;;;14.27;9.17;;;;;;;12.93;100.00;101093.13;673575;29;1134;-83
2021/08/28 00:13:33;;;;;;;15.63;9.77;;;;;;;12.95;100.00;101096.63;674495;29;1004;-83
2021/08/28 00:13:54;;;;;;;17.87;11.10;;;;;;;12.95;100.00;101097.50;673335;29;924;-83
2021/08/28 00:14:14;;;;;;;19.15;11.00;;;;;;;12.97;100.00;101094.84;675772;29;4115;-83
2021/08/28 00:14:35;;;;;;;16.43;10.63;;;;;;;12.95;100.00;101097.50;678447;29;2647;-82
2021/08/28 00:14:57;;;;;;;15.32;9.73;;;;;;;12.95;100.00;101092.25;678103;29;1808;-83
2021/08/28 00:15:17;;;;;;;16.35;10.30;;;;;;;12.95;100.00;101091.41;674935;29;1156;-83
2021/08/28 00:15:38;;;;;;;15.87;11.00;;;;;;;13.00;100.00;101093.97;675198;29;1011;-83
2021/08/28 00:16:00;;;;;;;16.05;11.00;;;;;;;13.01;100.00;101093.09;677335;29;4408;-83
2021/08/28 00:16:20;;;;;;;16.80;10.25;;;;;;;13.00;100.00;101088.72;674964;29;1330;-83
2021/08/28 00:16:40;;;;;;;13.80;9.53;;;;;;;13.01;100.00;101091.31;672259;29;2786;-83
2021/08/28 00:17:01;;;;;;;16.95;10.70;;;;;;;13.02;100.00;101086.97;670216;29;921;-83
2021/08/28 00:17:21;;;;;;;15.53;9.60;;;;;;;13.00;100.00;101081.75;669849;29;4233;-82
2021/08/28 00:17:42;;;;;;;14.15;9.00;;;;;;;13.01;100.00;101093.09;670354;29;1448;-82
2021/08/28 00:18:02;;;;;;;14.07;9.10;;;;;;;13.02;100.00;101086.97;669678;29;1327;-83
2021/08/28 00:18:23;;;;;;;13.23;9.05;;;;;;;13.01;100.00;101085.22;672151;29;1076;-83
2021/08/28 00:18:43;;;;;;;15.10;9.77;;;;;;;13.03;100.00;101086.06;677747;29;4602;-83
2021/08/28 00:19:04;;;;;;;17.00;10.15;;;;;;;13.03;100.00;101088.69;677966;29;1197;-83
2021/08/28 00:19:24;;;;;;;16.60;10.27;;;;;;;13.03;100.00;101083.44;674791;29;1405;-82
2021/08/28 00:19:44;;;;;;;15.55;10.52;;;;;;;13.03;100.00;101083.44;674990;29;1284;-82
2021/08/28 00:20:08;;;;;;;15.40;10.13;;;;;;;13.02;100.00;101082.56;674386;29;1945;-82
2021/08/28 00:20:29;;;;;;;14.70;9.10;;;;;;;13.03;100.00;101083.44;674335;29;4245;-83
2021/08/28 00:20:50;;;;;;;15.27;10.20;;;;;;;13.03;100.00;101086.06;675065;29;1113;-83
2021/08/28 00:21:11;;;;;;;17.55;11.30;;;;;;;13.03;100.00;101084.31;675773;29;1557;-83
2021/08/28 00:21:34;;;;;;;17.73;11.32;;;;;;;13.03;100.00;101078.19;677773;29;1432;-83
2021/08/28 00:21:54;;;;;;;18.38;11.55;;;;;;;13.02;100.00;101086.97;678462;29;4377;-83
2021/08/28 00:22:15;;;;;;;18.45;10.85;;;;;;;13.02;100.00;101094.84;679734;29;1218;-83
2021/08/28 00:22:36;;;;;;;16.60;11.10;;;;;;;13.00;100.00;101081.75;675771;29;1307;-83
2021/08/28 00:22:57;;;;;;;16.05;11.20;;;;;;;13.00;100.00;101083.47;674913;29;1463;-83
2021/08/28 00:23:17;;;;;;;15.88;10.93;;;;;;;13.00;100.00;101079.13;674390;29;3771;-83
2021/08/28 00:23:37;;;;;;;14.77;10.13;;;;;;;13.02;100.00;101089.59;674207;29;1306;-83
2021/08/28 00:23:58;;;;;;;15.02;9.55;;;;;;;13.01;100.00;101080.81;678394;29;1472;-83
2021/08/28 00:24:18;;;;;;;16.03;9.70;;;;;;;13.01;100.00;101086.06;676990;29;1395;-83
2021/08/28 00:24:39;;;;;;;17.10;10.57;;;;;;;13.03;100.00;101086.06;678563;29;1291;-82
2021/08/28 00:24:59;;;;;;;20.17;11.17;;;;;;;13.03;100.00;101086.06;678727;29;4431;-82
2021/08/28 00:25:19;;;;;;;16.50;11.45;;;;;;;13.02;100.00;101082.56;679040;29;1244;-83
2021/08/28 00:25:40;;;;;;;17.60;11.23;;;;;;;13.01;100.00;101088.69;677665;29;1245;-83
2021/08/28 00:26:01;;;;;;;16.48;11.30;;;;;;;13.01;100.00;101083.44;677316;29;864;-82
2021/08/28 00:26:21;;;;;;;19.93;11.50;;;;;;;12.98;100.00;101082.63;677405;29;4003;-82
2021/08/28 00:26:41;;;;;;;23.33;11.73;;;;;;;12.98;100.00;101080.88;677757;29;1237;-82
2021/08/28 00:27:02;;;;;;;20.57;12.10;;;;;;;12.98;100.00;101082.63;679728;29;2186;-82
2021/08/28 00:27:22;;;;;;;17.03;11.43;;;;;;;12.96;100.00;101077.41;677626;29;1362;-82
2021/08/28 00:27:43;;;;;;;16.10;11.20;;;;;;;12.98;100.00;101080.00;677709;29;1486;-82
2021/08/28 00:28:04;;;;;;;18.05;11.45;;;;;;;12.98;100.00;101080.88;676929;29;4523;-81
2021/08/28 00:28:24;;;;;;;17.60;10.88;;;;;;;13.02;100.00;101084.34;677526;29;1284;-81
2021/08/28 00:28:45;;;;;;;16.30;11.00;;;;;;;13.03;100.00;101084.31;679650;29;1343;-81
2021/08/28 00:29:06;;;;;;;17.85;11.50;;;;;;;13.06;100.00;101086.06;677985;29;2979;-81
2021/08/28 00:29:26;;;;;;;19.33;11.52;;;;;;;13.04;100.00;101074.69;676257;29;1135;-82
2021/08/28 00:29:46;;;;;;;19.77;12.17;;;;;;;13.03;100.00;101083.44;675760;29;1342;-82
2021/08/28 00:30:08;;;;;;;20.52;12.07;;;;;;;13.03;100.00;101086.94;672683;29;1401;-82
2021/08/28 00:30:29;;;;;;;18.23;12.00;;;;;;;13.02;100.00;101081.72;677811;29;1334;-82
2021/08/28 00:30:50;;;;;;;16.00;11.85;;;;;;;13.00;100.00;101086.97;677870;29;4362;-82
2021/08/28 00:31:10;;;;;;;17.50;12.10;;;;;;;13.01;100.00;101083.44;679746;29;1653;-82
2021/08/28 00:31:31;;;;;;;17.93;12.20;;;;;;;13.00;100.00;101091.34;680800;29;1165;-81
2021/08/28 00:31:51;;;;;;;18.90;12.43;;;;;;;13.08;100.00;101087.78;677100;29;1852;-82
2021/08/28 00:32:11;;;;;;;17.90;11.90;;;;;;;13.09;100.00;101088.66;677008;29;3819;-82
2021/08/28 00:32:32;;;;;;;19.23;11.80;;;;;;;13.07;100.00;101079.91;676047;29;1566;-82
2021/08/28 00:32:52;;;;;;;20.03;12.20;;;;;;;13.05;100.00;101087.78;672917;29;1354;-81
2021/08/28 00:33:15;;;;;;;20.25;12.38;;;;;;;13.05;100.00;101084.31;676202;29;1394;-81
2021/08/28 00:33:35;;;;;;;20.25;12.52;;;;;;;13.03;100.00;101084.31;675526;29;1449;-82
2021/08/28 00:33:55;;;;;;;19.10;12.47;;;;;;;13.03;100.00;101088.69;677418;29;4436;-82
2021/08/28 00:34:16;;;;;;;20.73;13.10;;;;;;;13.02;100.00;101085.19;680169;29;1048;-82
2021/08/28 00:34:36;;;;;;;19.88;12.57;;;;;;;13.01;100.00;101088.69;680188;29;1280;-82
2021/08/28 00:34:57;;;;;;;21.83;13.00;;;;;;;13.00;100.00;101086.09;677788;29;1303;-82
2021/08/28 00:35:17;;;;;;;21.30;13.10;;;;;;;13.01;100.00;101080.81;676866;29;4141;-82
2021/08/28 00:35:38;;;;;;;22.27;13.02;;;;;;;13.04;100.00;101083.44;677571;29;1375;-81
2021/08/28 00:35:58;;;;;;;22.48;13.57;;;;;;;13.02;100.00;101092.22;679944;29;1521;-82
2021/08/28 00:36:18;;;;;;;21.17;13.47;;;;;;;13.07;100.00;101093.03;682343;29;1243;-82
2021/08/28 00:36:39;;;;;;;19.08;13.10;;;;;;;13.06;100.00;101084.28;680477;29;1196;-82
2021/08/28 00:36:59;;;;;;;16.27;12.00;;;;;;;13.07;100.00;101091.28;680191;29;4355;-81
2021/08/28 00:37:20;;;;;;;19.67;12.50;;;;;;;13.13;100.00;101087.75;680295;29;1269;-81
2021/08/28 00:37:40;;;;;;;21.77;13.47;;;;;;;13.12;100.00;101083.38;677944;29;1270;-82
2021/08/28 00:38:01;;;;;;;22.05;13.90;;;;;;;13.11;100.00;101084.25;677394;29;1676;-82
2021/08/28 00:38:21;;;;;;;20.67;13.43;;;;;;;13.09;100.00;101079.00;677649;29;4315;-82
2021/08/28 00:38:42;;;;;;;21.77;13.63;;;;;;;13.10;100.00;101079.91;677191;29;1658;-82
2021/08/28 00:39:02;;;;;;;21.00;14.00;;;;;;;13.08;100.00;101086.91;677322;29;3639;-81
2021/08/28 00:39:23;;;;;;;19.73;13.65;;;;;;;13.06;100.00;101084.28;678535;29;1463;-82
2021/08/28 00:39:43;;;;;;;21.40;13.73;;;;;;;13.07;100.00;101079.91;677731;29;4538;-82
2021/08/28 00:40:05;;;;;;;21.37;13.73;;;;;;;13.10;100.00;101087.78;677569;29;1985;-81
2021/08/28 00:40:25;;;;;;;19.25;12.40;;;;;;;13.09;99.95;101084.25;677441;29;1907;-82
2021/08/28 00:40:46;;;;;;;19.03;12.60;;;;;;;13.09;99.70;101083.41;675318;29;1299;-82
2021/08/28 00:41:06;;;;;;;19.03;12.83;;;;;;;13.09;99.20;101086.03;677230;29;4147;-81
2021/08/28 00:41:27;;;;;;;16.95;12.68;;;;;;;13.10;99.07;101082.53;676671;29;1688;-81
2021/08/28 00:41:47;;;;;;;18.37;12.80;;;;;;;13.12;98.84;101091.25;677655;29;1341;-80
2021/08/28 00:42:08;;;;;;;20.73;13.20;;;;;;;13.13;99.38;101090.38;678102;29;1360;-82
2021/08/28 00:42:29;;;;;;;21.00;14.10;;;;;;;13.14;99.57;101083.34;680455;29;1352;-81
2021/08/28 00:42:51;;;;;;;21.90;14.13;;;;;;;13.15;99.38;101082.47;681849;29;4377;-81
2021/08/28 00:43:11;;;;;;;23.40;14.50;;;;;;;13.15;99.15;101082.47;684593;28;1232;-81
2021/08/28 00:43:32;;;;;;;22.60;14.63;;;;;;;13.15;99.65;101079.84;680249;28;1131;-82
2021/08/28 00:43:53;;;;;;;23.15;15.63;;;;;;;13.14;99.91;101080.72;680376;29;1478;-82
2021/08/28 00:44:14;;;;;;;24.90;16.58;;;;;;;13.12;100.00;101083.38;678724;29;2910;-81
2021/08/28 00:44:39;;;;;;;24.10;16.73;;;;;;;13.11;100.00;101082.50;680954;29;1565;-81
2021/08/28 00:45:00;;;;;;;25.67;16.15;;;;;;;13.11;100.00;101084.25;679721;29;1153;-82
2021/08/28 00:45:25;;;;;;;26.97;16.40;;;;;;;13.09;100.00;101088.66;677644;29;1287;-82
2021/08/28 00:45:45;;;;;;;25.60;16.75;;;;;;;13.07;100.00;101083.41;676766;29;4391;-81
2021/08/28 00:46:05;;;;;;;25.53;16.17;;;;;;;13.07;100.00;101077.28;677161;29;1062;-81
2021/08/28 00:46:26;;;;;;;24.90;16.17;;;;;;;13.04;100.00;101077.31;677463;29;1146;-81
2021/08/28 00:46:48;;;;;;;25.57;16.93;;;;;;;13.04;100.00;101090.44;678270;29;1214;-82
2021/08/28 00:47:08;;;;;;;23.70;16.20;;;;;;;13.05;100.00;101084.31;679358;29;4019;-81
2021/08/28 00:47:28;;;;;;;21.67;15.55;;;;;;;13.05;100.00;101081.69;677444;29;1295;-82
2021/08/28 00:47:57;;;;;;;22.17;15.47;;;;;;;13.05;99.71;101085.16;673771;29;1315;-81
2021/08/28 00:48:17;;;;;;;21.67;16.08;;;;;;;13.07;99.23;101080.78;674628;29;1202;-81
2021/08/28 00:48:37;;;;;;;22.02;15.23;;;;;;;13.07;99.35;101085.16;674890;29;1265;-82
2021/08/28 00:48:58;;;;;;;24.40;16.17;;;;;;;13.08;100.00;101087.78;676164;29;4441;-81
2021/08/28 00:49:19;;;;;;;25.27;17.08;;;;;;;13.09;100.00;101084.25;682660;29;1335;-82
2021/08/28 00:49:39;;;;;;;22.52;16.48;;;;;;;13.08;99.80;101077.28;680941;29;1158;-82
2021/08/28 00:49:59;;;;;;;22.13;16.07;;;;;;;13.23;99.89;101084.13;680924;29;3652;-81
2021/08/28 00:50:21;;;;;;;24.60;17.40;;;;;;;13.25;99.70;101086.75;676490;29;3972;-81
2021/08/28 00:50:43;;;;;;;23.48;16.27;;;;;;;13.30;99.88;101082.34;677460;29;1414;-81
2021/08/28 00:51:04;;;;;;;22.23;16.00;;;;;;;13.26;99.78;101078.88;677067;29;1368;-82
2021/08/28 00:51:24;;;;;;;23.67;16.88;;;;;;;13.27;99.74;101082.38;672616;29;1190;-82
2021/08/28 00:51:48;;;;;;;25.05;16.80;;;;;;;13.26;99.46;101080.63;674145;29;4388;-81
2021/08/28 00:52:08;;;;;;;21.70;16.13;;;;;;;13.24;99.02;101088.50;672434;29;1027;-81
2021/08/28 00:52:28;;;;;;;21.83;15.57;;;;;;;13.22;98.83;101085.06;673900;29;1060;-81
2021/08/28 00:52:50;;;;;;;21.90;16.55;;;;;;;13.21;98.85;101083.31;672018;29;3168;-81
2021/08/28 00:53:14;;;;;;;25.48;17.95;;;;;;;13.19;99.50;101084.19;674500;29;2923;-81
2021/08/28 00:53:34;;;;;;;27.45;17.83;;;;;;;13.19;99.00;101087.69;677718;29;1733;-81
2021/08/28 00:53:54;;;;;;;26.57;17.53;;;;;;;13.18;99.58;101085.97;677654;29;1803;-82
2021/08/28 00:54:15;;;;;;;26.40;17.50;;;;;;;13.20;98.72;101081.56;680133;29;1138;-81
2021/08/28 00:54:37;;;;;;;26.45;17.33;;;;;;;13.20;98.80;101094.69;680248;29;1463;-81
2021/08/28 00:54:59;;;;;;;25.45;17.73;;;;;;;13.21;98.38;101088.56;677839;29;4348;-81
2021/08/28 00:55:24;;;;;;;25.15;18.27;;;;;;;13.25;98.62;101089.38;674978;29;1217;-81
2021/08/28 00:55:46;;;;;;;23.45;17.48;;;;;;;13.24;98.24;101088.50;679003;29;1659;-81
2021/08/28 00:56:07;;;;;;;24.80;17.27;;;;;;;13.26;98.90;101085.88;679664;29;4091;-80
2021/08/28 00:56:28;;;;;;;26.83;18.17;;;;;;;13.24;99.16;101085.88;677426;29;1199;-81
2021/08/28 00:56:49;;;;;;;28.45;18.58;;;;;;;13.24;98.95;101085.03;679928;29;1097;-81
2021/08/28 00:57:11;;;;;;;24.05;17.70;;;;;;;13.22;98.83;101094.66;677290;28;1449;-81
2021/08/28 00:57:33;;;;;;;24.35;16.85;;;;;;;13.23;98.52;101099.03;678498;29;1465;-81
2021/08/28 00:57:55;;;;;;;25.95;18.00;;;;;;;13.31;98.84;101083.22;677310;29;4331;-82
2021/08/28 00:58:17;;;;;;;27.85;18.48;;;;;;;13.29;98.76;101086.72;676635;29;1284;-81
2021/08/28 00:58:37;;;;;;;26.48;18.25;;;;;;;13.30;98.77;101082.34;677831;29;1940;-81
2021/08/28 00:58:57;;;;;;;29.37;19.00;;;;;;;13.28;99.57;101094.63;674958;29;3624;-82
2021/08/28 00:59:18;;;;;;;28.63;19.23;;;;;;;13.25;99.47;101085.00;672638;29;1246;-82
2021/08/28 00:59:41;;;;;;;26.10;18.80;;;;;;;13.25;99.43;101085.00;674983;29;1486;-81
2021/08/28 01:00:05;;;;;;;26.83;18.77;;;;;;;13.26;99.38;101094.63;676936;29;1962;-82
2021/08/28 01:00:26;;;;;;;26.30;18.75;;;;;;;13.26;99.24;101080.63;675707;29;1662;-81
2021/08/28 01:01:02;;;;;;;24.65;17.85;;;;;;;13.25;99.22;101086.75;674293;29;4350;-82
2021/08/28 01:01:29;;;;;;;26.48;19.08;;;;;;;13.28;99.30;101087.59;678048;29;1190;-81
2021/08/28 01:01:50;;;;;;;25.08;18.27;;;;;;;13.27;98.73;101080.59;680826;29;1953;-82
2021/08/28 01:02:12;;;;;;;24.83;17.83;;;;;;;13.27;98.35;101088.47;676955;29;4138;-81
2021/08/28 01:02:34;;;;;;;26.00;18.42;;;;;;;13.28;97.76;101087.59;678579;29;1421;-81
2021/08/28 01:02:57;;;;;;;25.95;18.50;;;;;;;13.27;98.82;101088.47;674972;29;1444;-81
2021/08/28 01:03:22;;;;;;;26.73;19.05;;;;;;;13.24;99.02;101091.16;679191;29;1291;-82
2021/08/28 01:03:45;;;;;;;27.05;19.42;;;;;;;13.25;98.81;101089.38;679396;29;1117;-82
2021/08/28 01:04:07;;;;;;;28.35;19.70;;;;;;;13.23;99.26;101094.63;681684;29;4887;-81
2021/08/28 01:04:36;;;;;;;30.05;19.80;;;;;;;13.23;99.46;101085.91;682207;29;1387;-82
2021/08/28 01:05:13;;;;;;;27.13;19.40;;;;;;;13.21;98.75;101093.81;681142;29;3585;-81
2021/08/28 01:06:00;;;;;;;25.83;19.00;;;;;;;13.22;98.71;101085.06;682142;29;1098;-82
2021/08/28 01:06:40;;;;;;;27.13;19.00;;;;;;;13.22;99.35;101090.31;685006;29;1321;-82
2021/08/28 01:07:51;;;;;;;29.75;19.83;;;;;;;13.22;99.71;101089.41;687037;28;5019;-82
2021/08/28 01:08:45;;;;;;;29.55;20.95;;;;;;;13.19;99.52;101090.31;682244;29;1479;-82
2021/08/28 01:09:31;;;;;;;30.25;21.13;;;;;;;13.17;99.57;101093.84;684244;29;1340;-82
2021/08/28 01:10:19;;;;;;;29.02;20.10;;;;;;;13.22;99.20;101099.91;686328;28;5107;-82
2021/08/28 01:11:03;;;;;;;30.00;20.42;;;;;;;13.22;99.66;101097.28;681829;29;4264;-82
2021/08/28 01:11:56;;;;;;;28.85;19.77;;;;;;;13.23;99.85;101099.03;681342;29;1650;-82
2021/08/28 01:12:26;;;;;;;29.45;21.20;;;;;;;13.21;99.97;101099.06;682003;29;1425;-82
2021/08/28 01:13:00;;;;;;;32.13;21.60;;;;;;;13.18;100.00;101098.19;681363;29;4359;-82
2021/08/28 01:13:23;;;;;;;31.17;21.08;;;;;;;13.17;100.00;101096.47;682226;29;1229;-82
2021/08/28 01:13:47;;;;;;;28.08;19.90;;;;;;;13.17;99.92;101097.34;682069;29;3757;-82
2021/08/28 01:14:15;;;;;;;31.73;21.13;;;;;;;13.18;100.00;101098.19;680886;29;1085;-81
2021/08/28 01:14:44;;;;;;;33.65;21.80;;;;;;;13.17;100.00;101097.34;681462;29;1342;-82
2021/08/28 01:15:09;;;;;;;33.15;21.90;;;;;;;13.16;100.00;101095.59;679854;29;1251;-82
2021/08/28 01:15:30;;;;;;;29.67;21.15;;;;;;;13.16;99.84;101094.72;677603;29;1222;-82
2021/08/28 01:15:52;;;;;;;28.30;20.55;;;;;;;13.14;100.00;101101.72;676087;29;4419;-82
2021/08/28 01:16:18;;;;;;;31.65;21.73;;;;;;;13.14;100.00;101102.63;676434;29;1282;-82
2021/08/28 01:16:41;;;;;;;30.30;21.88;;;;;;;13.15;100.00;101104.34;678957;29;3475;-82
2021/08/28 01:17:06;;;;;;;28.10;20.90;;;;;;;13.16;100.00;101099.97;677229;29;1155;-82
2021/08/28 01:17:29;;;;;;;29.38;20.75;;;;;;;13.19;100.00;101108.69;679365;29;1614;-82
2021/08/28 01:17:51;;;;;;;28.30;20.88;;;;;;;13.19;99.86;101100.81;679247;29;1436;-82
2021/08/28 01:18:15;;;;;;;27.55;20.25;;;;;;;13.20;99.91;101104.31;674903;29;1603;-82
2021/08/28 01:18:38;;;;;;;27.45;20.30;;;;;;;13.20;99.13;101099.06;675733;29;1421;-82
2021/08/28 01:18:59;;;;;;;28.05;20.52;;;;;;;13.21;98.84;101104.31;679104;29;4367;-81
2021/08/28 01:19:27;;;;;;;28.35;20.50;;;;;;;13.23;98.81;101097.25;677106;29;1646;-82
2021/08/28 01:20:03;;;;;;;27.80;20.58;;;;;;;13.24;98.89;101103.41;674679;29;2513;-82
2021/08/28 01:21:00;;;;;;;30.40;21.17;;;;;;;13.27;98.63;101101.59;674559;29;1068;-82
2021/08/28 01:21:44;;;;;;;27.40;20.48;;;;;;;13.36;97.54;101102.44;687185;28;4406;-81
2021/08/28 01:22:27;;;;;;;27.20;20.00;;;;;;;13.35;97.10;101096.34;690528;28;1364;-82
2021/08/28 01:23:07;;;;;;;30.88;21.50;;;;;;;13.36;98.58;101112.94;684609;29;1315;-82
2021/08/28 01:23:48;;;;;;;32.33;21.58;;;;;;;13.31;99.03;101105.09;685343;29;1058;-82
2021/08/28 01:24:42;;;;;;;30.10;21.48;;;;;;;13.27;99.56;101108.63;681352;29;1191;-82
2021/08/28 01:25:32;;;;;;;32.28;22.17;;;;;;;13.25;100.00;101108.66;683804;29;5293;-82
2021/08/28 01:26:08;;;;;;;34.22;22.85;;;;;;;13.23;100.00;101104.28;682079;28;1698;-82
2021/08/28 01:26:53;;;;;;;36.33;23.27;;;;;;;13.20;100.00;101109.56;676780;29;1487;-82
2021/08/28 01:27:19;;;;;;;35.22;22.50;;;;;;;13.19;100.00;101098.19;674203;29;1437;-82
2021/08/28 01:27:52;;;;;;;34.60;23.20;;;;;;;13.17;100.00;101106.97;677349;29;1529;-82
2021/08/28 01:28:13;;;;;;;36.72;22.75;;;;;;;13.18;100.00;101104.34;679826;29;4911;-81
2021/08/28 01:28:41;;;;;;;36.80;22.65;;;;;;;13.17;100.00;101102.59;679334;29;2774;-82
2021/08/28 01:29:20;;;;;;;34.85;23.73;;;;;;;13.15;100.00;101099.09;680499;29;1248;-82
2021/08/28 01:29:42;;;;;;;33.05;23.45;;;;;;;13.15;100.00;101101.72;679333;28;1332;-82
2021/08/28 01:30:04;;;;;;;31.63;22.92;;;;;;;13.14;100.00;101096.47;680058;29;1533;-82
2021/08/28 01:30:27;;;;;;;34.42;23.30;;;;;;;13.16;100.00;101102.59;674594;29;1198;-83
2021/08/28 01:30:48;;;;;;;31.48;21.95;;;;;;;13.15;100.00;101098.22;674176;29;4549;-82
2021/08/28 01:31:11;;;;;;;29.63;21.65;;;;;;;13.14;99.98;101107.88;681750;29;1364;-82
2021/08/28 01:31:32;;;;;;;35.15;23.60;;;;;;;13.14;99.96;101102.63;682155;29;2622;-82
2021/08/28 01:31:55;;;;;;;35.70;24.08;;;;;;;13.16;100.00;101102.59;682131;29;1268;-82
2021/08/28 01:32:18;;;;;;;35.05;23.95;;;;;;;13.16;100.00;101095.59;681293;29;1239;-82
2021/08/28 01:32:38;;;;;;;32.05;22.23;;;;;;;13.16;99.96;101106.09;679870;29;1121;-82
2021/08/28 01:33:01;;;;;;;31.73;22.13;;;;;;;13.18;100.00;101099.09;676909;29;1458;-82
2021/08/28 01:33:23;;;;;;;34.80;23.95;;;;;;;13.20;100.00;101092.06;676929;29;1669;-82
2021/08/28 01:33:48;;;;;;;35.58;23.63;;;;;;;13.21;100.00;101103.41;674341;29;4348;-82
2021/08/28 01:34:12;;;;;;;34.45;22.83;;;;;;;13.21;100.00;101095.53;676802;29;1724;-83
2021/08/28 01:34:33;;;;;;;32.50;22.25;;;;;;;13.20;99.79;101092.06;682286;29;3819;-82
2021/08/28 01:34:56;;;;;;;34.80;23.15;;;;;;;13.23;100.00;101101.66;680397;29;2329;-82
2021/08/28 01:35:20;;;;;;;35.15;23.50;;;;;;;13.21;100.00;101093.81;679781;29;1424;-82
2021/08/28 01:35:43;;;;;;;35.63;23.83;;;;;;;13.19;100.00;101092.06;676093;29;1257;-83
2021/08/28 01:36:09;;;;;;;38.42;24.75;;;;;;;13.17;100.00;101092.09;676337;29;1315;-82
2021/08/28 01:37:02;;;;;;;36.08;23.50;;;;;;;13.16;100.00;101098.22;684035;29;4425;-82
2021/08/28 01:37:44;;;;;;;32.35;22.73;;;;;;;13.16;99.47;101100.84;681471;29;1085;-82
2021/08/28 01:38:30;;;;;;;36.75;24.05;;;;;;;13.19;99.58;101094.69;679268;29;1556;-82
2021/08/28 01:39:02;;;;;;;34.25;23.55;;;;;;;13.19;99.81;101092.06;678970;29;3767;-81
2021/08/28 01:39:24;;;;;;;31.27;22.45;;;;;;;13.18;99.56;101099.09;679851;29;1023;-82
2021/08/28 01:39:48;;;;;;;30.58;22.70;;;;;;;13.19;99.77;101090.31;679292;29;4380;-82
2021/08/28 01:40:18;;;;;;;37.75;24.08;;;;;;;13.19;100.00;101092.06;680057;29;2287;-82
2021/08/28 01:40:53;;;;;;;32.42;23.60;;;;;;;13.21;100.00;101092.91;680988;29;1034;-82
2021/08/28 01:41:14;;;;;;;29.70;21.92;;;;;;;13.21;99.73;101101.69;675501;29;1536;-81
2021/08/28 01:41:37;;;;;;;32.13;22.93;;;;;;;13.22;98.98;101094.66;679841;29;1286;-81
2021/08/28 01:42:01;;;;;;;35.05;23.20;;;;;;;13.23;98.84;101099.91;679125;29;1185;-82
2021/08/28 01:42:28;;;;;;;33.17;23.27;;;;;;;13.23;99.23;101094.63;679535;29;1281;-82
2021/08/28 01:42:50;;;;;;;38.67;25.13;;;;;;;13.24;99.42;101104.28;675128;29;4401;-82
2021/08/28 01:43:11;;;;;;;33.42;22.85;;;;;;;13.25;99.14;101090.25;679131;29;1298;-82
2021/08/28 01:43:32;;;;;;;31.95;23.10;;;;;;;13.39;98.65;101105.06;678776;29;3832;-82
2021/08/28 01:43:57;;;;;;;34.58;23.77;;;;;;;13.35;99.38;101100.69;679082;29;1302;-82
2021/08/28 01:44:19;;;;;;;36.85;24.42;;;;;;;13.34;98.82;101091.06;676852;29;1368;-82
2021/08/28 01:44:49;;;;;;;34.15;24.10;;;;;;;13.31;99.47;101091.97;675192;29;1364;-82
2021/08/28 01:45:13;;;;;;;37.92;24.90;;;;;;;13.28;99.54;101095.47;674407;29;1465;-82
2021/08/28 01:45:37;;;;;;;37.50;25.25;;;;;;;13.27;99.75;101098.97;676947;29;1266;-83
2021/08/28 01:45:58;;;;;;;37.58;25.17;;;;;;;13.26;99.89;101104.25;676819;29;4317;-82
2021/08/28 01:46:18;;;;;;;39.40;25.73;;;;;;;13.25;99.92;101099.88;677049;29;1810;-82
2021/08/28 01:46:44;;;;;;;36.58;25.02;;;;;;;13.24;100.00;101111.28;673686;29;1896;-82
2021/08/28 01:47:09;;;;;;;39.75;25.08;;;;;;;13.28;100.00;101100.72;672958;29;1285;-82
2021/08/28 01:47:31;;;;;;;39.58;25.38;;;;;;;13.25;99.93;101106.03;675746;29;1173;-82
2021/08/28 01:47:54;;;;;;;41.50;25.88;;;;;;;13.23;100.00;101102.53;675461;29;1285;-82
2021/08/28 01:48:16;;;;;;;39.15;25.13;;;;;;;13.21;100.00;101101.69;676700;29;1332;-82
2021/08/28 01:48:40;;;;;;;41.47;25.75;;;;;;;13.21;100.00;101109.56;678432;29;1299;-82
2021/08/28 01:49:06;;;;;;;39.92;25.30;;;;;;;13.21;100.00;101104.31;677931;29;4998;-82
2021/08/28 01:49:27;;;;;;;36.95;24.35;;;;;;;13.21;99.83;101104.31;674938;29;2451;-82
2021/08/28 01:49:48;;;;;;;38.77;25.27;;;;;;;13.20;100.00;101107.81;674370;29;1295;-82
2021/08/28 01:50:14;;;;;;;37.70;25.15;;;;;;;13.19;99.99;101103.44;671975;29;1830;-82
2021/08/28 01:50:35;;;;;;;37.15;24.80;;;;;;;13.20;99.85;101102.56;675548;29;1774;-82
2021/08/28 01:51:06;;;;;;;38.17;24.95;;;;;;;13.21;100.00;101103.41;674055;29;1614;-81